Mid Ohio Valley Regional Airport Parkersburg US
ICAO: KPKB
IATA: PKB
Category: Medium
Scheduled Services: Yes

Elevation: 858 ft
TransAlt. 18000 ft.

Airport Communications:
ATIS:124.35
INDIANAPOLIS CNTR:125.55
CTAF:123.7
GND:121.7
PARKERSBURG TWR:123.7
UNICOM:122.95

KPKB Zoom In..

If you have problems with the map follow the link
https://www.worldairports.se/pages/airport.php?
ICAO=KPKB

Runways:

(A) RW 03 length 7240 ft width 150 ft
ILS 110.70 / hdg 29

(B) RW 10 length 4002 ft width 150 ft
---- / hdg 102

(C) RW 21 length 7240 ft width 150 ft
---- / hdg 209

(D) RW 28 length 4002 ft width 150 ft
---- / hdg 282

Location; KPKB
Day. 20 / Time. 20.53 Zulu
* Altimeter: 29.92
* Temperature: 09° c. 48.2°f.
* Wind from: 140° Speed 05 kn.
Dewpoint: 07° c.
Visibility: 4 Statute Miles.
Clouds: Broken 3000 ft.
Clouds: Overcast 3700 ft.
Conditions: Light Rain.Conditions: Mist.

KPKB 202053Z 14005KT 4SM -RA BR BKN030 OVC037 09/07 A2992 RMK AO2 RAB05E26B45 SLP136 P0001 60001 T00890067 58023


Wind From 140°
Speed 05 kn.

 
 
jpsmedia.com for Web Design worldairports.se 2019   terms of use